Time;durP1;ratioP1;P1;durP2;ratioP2;P2;SDS_P1;SDS_P2;PMS_P1;PMS_P2;Temp;Humidity;BMP_temperature;BMP_pressure;BME280_temperature;BME280_humidity;BME280_pressure;Samples;Min_cycle;Max_cycle;Signal;HPM_P1;HPM_P2
2022/11/18 00:01:19;;;;;;;2.10;1.60;;;21.80;65.40;;;;;;4990487;28;20544;-74
2022/11/18 00:03:48;;;;;;;2.40;1.70;;;21.80;65.40;;;;;;4991112;28;20481;-78
2022/11/18 00:06:18;;;;;;;2.23;1.60;;;21.80;65.40;;;;;;4992646;28;20862;-78
2022/11/18 00:08:47;;;;;;;2.50;1.70;;;21.80;65.40;;;;;;4992499;28;21045;-79
2022/11/18 00:14:17;;;;;;;2.10;1.73;;;21.80;65.40;;;;;;4988423;28;20465;-73
2022/11/18 00:14:19;;;;;;;1.63;1.53;;;21.80;65.40;;;;;;4985455;28;20461;-77
2022/11/18 00:16:49;;;;;;;1.57;1.20;;;21.70;65.40;;;;;;4982001;28;20571;-77
2022/11/18 00:19:17;;;;;;;2.27;1.90;;;21.70;65.40;;;;;;4984115;28;20473;-78
2022/11/18 00:21:46;;;;;;;2.40;1.40;;;21.80;65.50;;;;;;4984285;28;21316;-79
2022/11/18 00:24:14;;;;;;;1.60;1.40;;;21.70;65.40;;;;;;4986319;28;20480;-79
2022/11/18 00:26:42;;;;;;;1.90;1.60;;;21.70;65.40;;;;;;4983707;28;20449;-78
2022/11/18 00:29:13;;;;;;;2.30;1.90;;;21.70;65.40;;;;;;4985309;28;20493;-74
2022/11/18 00:31:42;;;;;;;1.67;1.57;;;21.80;65.40;;;;;;4984344;28;20507;-79
2022/11/18 00:34:12;;;;;;;4.50;1.60;;;21.70;65.40;;;;;;4985809;28;20507;-76
2022/11/18 00:36:41;;;;;;;3.00;1.50;;;21.70;65.40;;;;;;4984253;28;20460;-79
2022/11/18 00:39:10;;;;;;;1.73;1.30;;;21.70;65.40;;;;;;4982275;28;20481;-77
2022/11/18 00:44:26;;;;;;;1.73;1.57;;;21.70;65.40;;;;;;4983495;28;20500;-78
2022/11/18 00:46:54;;;;;;;1.67;1.40;;;21.70;65.50;;;;;;4990606;28;20479;-78
2022/11/18 00:49:23;;;;;;;1.70;1.50;;;21.70;65.40;;;;;;4989211;28;20445;-79
2022/11/18 00:51:51;;;;;;;1.13;1.13;;;21.70;65.50;;;;;;4989740;28;20467;-77
2022/11/18 00:54:19;;;;;;;1.20;1.10;;;21.70;65.50;;;;;;4990588;28;20458;-79
2022/11/18 00:56:48;;;;;;;1.50;1.27;;;21.70;65.50;;;;;;4987813;28;20462;-76
2022/11/18 00:59:17;;;;;;;2.53;1.90;;;21.70;65.50;;;;;;4987292;28;20472;-79
2022/11/18 01:01:47;;;;;;;1.40;1.30;;;21.70;65.50;;;;;;4986627;28;20458;-78
2022/11/18 01:04:16;;;;;;;1.80;1.70;;;21.70;65.50;;;;;;4991044;28;20456;-78
2022/11/18 01:06:44;;;;;;;1.47;1.30;;;21.70;65.50;;;;;;4990802;28;20539;-77
2022/11/18 01:09:12;;;;;;;1.30;1.20;;;21.70;65.50;;;;;;4984935;28;20538;-78
2022/11/18 01:14:26;;;;;;;1.33;1.23;;;21.70;65.50;;;;;;4986253;28;20485;-78
2022/11/18 01:16:57;;;;;;;1.10;1.00;;;21.70;65.50;;;;;;4991110;28;20496;-78
2022/11/18 01:19:25;;;;;;;2.03;1.37;;;21.70;65.50;;;;;;4986885;28;20481;-78
2022/11/18 01:21:55;;;;;;;2.63;1.40;;;21.70;65.60;;;;;;4979633;28;20465;-76
2022/11/18 01:24:23;;;;;;;1.87;1.40;;;21.70;65.50;;;;;;4982763;28;20657;-77
2022/11/18 01:26:51;;;;;;;1.10;0.93;;;21.70;65.50;;;;;;4990027;28;20505;-78
2022/11/18 01:29:19;;;;;;;1.50;1.20;;;21.70;65.50;;;;;;4991295;28;20916;-79
2022/11/18 01:31:47;;;;;;;1.70;1.60;;;21.70;65.50;;;;;;4971803;28;20469;-76
2022/11/18 01:34:37;;;;;;;2.80;1.63;;;21.70;65.50;;;;;;4985147;28;20468;-76
2022/11/18 01:37:05;;;;;;;2.07;1.57;;;21.70;65.50;;;;;;4986671;28;21303;-79
2022/11/18 01:39:33;;;;;;;1.10;1.10;;;21.70;65.60;;;;;;4986943;28;20473;-79
2022/11/18 01:42:01;;;;;;;2.27;1.30;;;21.70;65.60;;;;;;4990035;28;20479;-73
2022/11/18 01:45:08;;;;;;;0.87;0.87;;;21.70;65.50;;;;;;4987139;28;20497;-78
2022/11/18 01:47:42;;;;;;;1.00;0.90;;;21.70;65.70;;;;;;4987279;28;20882;-79
2022/11/18 01:50:14;;;;;;;1.13;1.10;;;21.60;65.60;;;;;;4991064;28;20455;-78
2022/11/18 01:52:43;;;;;;;1.20;1.10;;;21.70;65.60;;;;;;4997340;28;20540;-79
2022/11/18 01:55:22;;;;;;;1.00;0.90;;;21.60;65.60;;;;;;4993535;28;21248;-78
2022/11/18 01:57:55;;;;;;;1.50;1.13;;;21.70;65.60;;;;;;4994082;28;20484;-76
2022/11/18 02:00:23;;;;;;;1.43;1.23;;;21.70;65.60;;;;;;4989217;28;20487;-79
2022/11/18 02:02:52;;;;;;;1.43;1.33;;;21.70;65.60;;;;;;4998122;28;20999;-78
2022/11/18 02:05:23;;;;;;;1.20;1.00;;;21.70;65.60;;;;;;4997052;28;20877;-77
2022/11/18 02:07:51;;;;;;;0.93;0.93;;;21.70;65.60;;;;;;4987097;28;20911;-73
2022/11/18 02:10:23;;;;;;;0.67;0.67;;;21.70;65.60;;;;;;4995936;28;20547;-78
2022/11/18 02:12:53;;;;;;;1.20;1.00;;;21.60;65.70;;;;;;4995578;28;20549;-77
2022/11/18 02:15:31;;;;;;;0.93;0.90;;;21.60;65.60;;;;;;4996473;28;20452;-76
2022/11/18 02:18:07;;;;;;;1.50;1.40;;;21.60;65.70;;;;;;4996506;28;20457;-78
2022/11/18 02:20:39;;;;;;;1.73;1.30;;;21.60;65.70;;;;;;4990814;28;20480;-77
2022/11/18 02:23:43;;;;;;;1.00;0.90;;;21.60;65.70;;;;;;4996195;28;21076;-75
2022/11/18 02:26:47;;;;;;;1.63;1.40;;;21.60;65.70;;;;;;4996855;28;20552;-78
2022/11/18 02:29:20;;;;;;;0.90;0.90;;;21.60;65.70;;;;;;4995188;28;20463;-75
2022/11/18 02:31:56;;;;;;;1.40;1.30;;;21.60;65.70;;;;;;4990277;28;20467;-78
2022/11/18 02:34:37;;;;;;;1.03;0.80;;;21.60;65.70;;;;;;4988334;28;20470;-76
2022/11/18 02:37:12;;;;;;;1.30;1.20;;;21.60;65.70;;;;;;4990894;28;20454;-79
2022/11/18 02:39:47;;;;;;;1.10;1.00;;;21.60;65.70;;;;;;4994572;28;20476;-75
2022/11/18 02:42:17;;;;;;;1.60;1.50;;;21.60;65.70;;;;;;4996106;28;20461;-77
2022/11/18 02:44:52;;;;;;;1.00;1.00;;;21.60;65.60;;;;;;4994512;28;20503;-77
2022/11/18 02:47:23;;;;;;;1.13;1.03;;;21.60;65.70;;;;;;4994114;28;20507;-79
2022/11/18 02:49:55;;;;;;;1.27;1.00;;;21.60;65.70;;;;;;4996655;28;20459;-79
2022/11/18 02:52:25;;;;;;;1.43;0.80;;;21.60;65.70;;;;;;4996615;28;20459;-78
2022/11/18 02:54:55;;;;;;;1.23;1.13;;;21.60;65.70;;;;;;4992082;28;20462;-78
2022/11/18 02:57:25;;;;;;;1.87;1.00;;;21.60;65.70;;;;;;4990380;28;20450;-79
2022/11/18 02:59:55;;;;;;;3.23;0.80;;;21.60;65.70;;;;;;4985802;28;20480;-79
2022/11/18 03:02:23;;;;;;;1.27;1.00;;;21.60;65.70;;;;;;4986900;28;20508;-79
2022/11/18 03:04:55;;;;;;;1.10;1.00;;;21.60;65.70;;;;;;4985867;28;20812;-78
2022/11/18 03:07:27;;;;;;;1.23;1.00;;;21.60;65.70;;;;;;4985836;28;20976;-78
2022/11/18 03:09:58;;;;;;;1.00;1.00;;;21.60;65.70;;;;;;4991466;28;20452;-75
2022/11/18 03:12:35;;;;;;;3.00;0.83;;;21.60;65.70;;;;;;4988225;28;20464;-78
2022/11/18 03:15:16;;;;;;;1.10;1.10;;;21.60;65.70;;;;;;4992319;28;20491;-78
2022/11/18 03:17:53;;;;;;;1.30;1.00;;;21.60;65.70;;;;;;4992033;28;21011;-79
2022/11/18 03:20:25;;;;;;;0.80;0.80;;;21.60;65.70;;;;;;4992817;28;20474;-79
2022/11/18 03:22:57;;;;;;;1.00;1.00;;;21.60;65.70;;;;;;4987502;28;20553;-78
2022/11/18 03:25:37;;;;;;;1.20;0.87;;;21.60;65.70;;;;;;4990870;28;20480;-78
2022/11/18 03:28:11;;;;;;;1.40;1.20;;;21.60;65.70;;;;;;4993512;28;20504;-78
2022/11/18 03:30:45;;;;;;;0.90;0.90;;;21.60;65.70;;;;;;4986323;28;20450;-79
2022/11/18 03:33:20;;;;;;;1.00;0.70;;;21.60;65.70;;;;;;4990004;28;20544;-76
2022/11/18 03:35:52;;;;;;;1.13;1.03;;;21.60;65.80;;;;;;4988518;28;20899;-79
2022/11/18 03:38:27;;;;;;;1.23;0.60;;;21.60;65.70;;;;;;4986229;28;20467;-78
2022/11/18 03:41:01;;;;;;;1.10;0.97;;;21.60;65.80;;;;;;4983892;28;21005;-78
2022/11/18 03:43:35;;;;;;;1.20;0.90;;;21.60;65.70;;;;;;4992546;28;21038;-79
2022/11/18 03:46:10;;;;;;;1.73;0.73;;;21.60;65.70;;;;;;4992011;28;20472;-77
2022/11/18 03:48:43;;;;;;;0.60;0.60;;;21.60;65.70;;;;;;4992649;28;20575;-76
2022/11/18 03:51:17;;;;;;;0.83;0.83;;;21.60;65.70;;;;;;4988619;28;20469;-78
2022/11/18 03:53:51;;;;;;;0.80;0.80;;;21.60;65.70;;;;;;4987629;28;20548;-75
2022/11/18 03:56:23;;;;;;;1.30;0.87;;;21.60;65.70;;;;;;4992022;28;20548;-78
2022/11/18 03:58:56;;;;;;;0.70;0.70;;;21.60;65.70;;;;;;4985042;28;20489;-78
2022/11/18 04:01:34;;;;;;;1.40;1.30;;;21.60;65.70;;;;;;4986695;28;20505;-78
2022/11/18 04:04:02;;;;;;;1.13;1.00;;;21.60;65.70;;;;;;4986054;28;20899;-79
2022/11/18 04:06:36;;;;;;;1.20;1.10;;;21.60;65.70;;;;;;4988689;28;20501;-78
2022/11/18 04:09:10;;;;;;;1.00;0.83;;;21.60;65.80;;;;;;4991647;28;20456;-78
2022/11/18 04:12:02;;;;;;;1.03;0.80;;;21.60;65.80;;;;;;4989990;28;20505;-76
2022/11/18 04:14:32;;;;;;;1.00;0.90;;;21.60;65.70;;;;;;4986977;28;20491;-75
2022/11/18 04:17:07;;;;;;;1.90;0.70;;;21.60;65.70;;;;;;4983420;28;20845;-74
2022/11/18 04:19:36;;;;;;;0.77;0.77;;;21.60;65.80;;;;;;4983501;28;20483;-75
2022/11/18 04:22:04;;;;;;;0.70;0.60;;;21.60;65.80;;;;;;4989380;28;20461;-79
2022/11/18 04:24:32;;;;;;;0.60;0.60;;;21.60;65.80;;;;;;4990617;28;20449;-78
2022/11/18 04:27:01;;;;;;;0.67;0.67;;;21.60;65.80;;;;;;4988159;28;20588;-78
2022/11/18 04:29:29;;;;;;;1.63;0.80;;;21.60;65.80;;;;;;4988274;28;20956;-78
2022/11/18 04:31:58;;;;;;;1.27;0.70;;;21.60;65.80;;;;;;4984040;28;20552;-79
2022/11/18 04:34:28;;;;;;;1.20;1.10;;;21.60;65.70;;;;;;4988284;28;20464;-78
2022/11/18 04:36:59;;;;;;;0.80;0.80;;;21.50;65.80;;;;;;4989102;28;20493;-77
2022/11/18 04:39:27;;;;;;;0.73;0.70;;;21.60;65.80;;;;;;4990035;28;20981;-78
2022/11/18 04:41:55;;;;;;;0.63;0.63;;;21.60;65.80;;;;;;4991471;28;20982;-77
2022/11/18 04:44:24;;;;;;;0.70;0.70;;;21.50;65.80;;;;;;4985355;28;20579;-80
2022/11/18 04:46:53;;;;;;;0.80;0.80;;;21.50;65.80;;;;;;4988165;28;20465;-79
2022/11/18 04:49:22;;;;;;;0.80;0.80;;;21.50;65.80;;;;;;4986042;28;20453;-78
2022/11/18 04:51:52;;;;;;;0.83;0.83;;;21.60;65.80;;;;;;4989921;28;20984;-78
2022/11/18 04:54:21;;;;;;;0.60;0.60;;;21.50;65.80;;;;;;4986331;28;20974;-78
2022/11/18 04:56:50;;;;;;;0.60;0.60;;;21.50;65.80;;;;;;4984796;28;20501;-79
2022/11/18 04:59:20;;;;;;;0.70;0.70;;;21.50;65.80;;;;;;4991778;28;20544;-77
2022/11/18 05:01:49;;;;;;;1.90;0.63;;;21.50;65.80;;;;;;4990565;28;20774;-77
2022/11/18 05:04:19;;;;;;;0.80;0.80;;;21.50;65.80;;;;;;4984073;28;20504;-77
2022/11/18 05:06:48;;;;;;;0.80;0.80;;;21.50;65.80;;;;;;4985331;28;20555;-78
2022/11/18 05:09:18;;;;;;;0.67;0.50;;;21.50;65.80;;;;;;4988629;28;20623;-75
2022/11/18 05:14:33;;;;;;;1.00;0.90;;;21.50;65.80;;;;;;4989218;28;20496;-76
2022/11/18 05:17:03;;;;;;;0.60;0.60;;;21.50;65.80;;;;;;4989451;28;20468;-75
2022/11/18 05:19:31;;;;;;;1.00;0.70;;;21.50;65.80;;;;;;4986274;28;20488;-76
2022/11/18 05:21:59;;;;;;;0.70;0.70;;;21.50;65.80;;;;;;4989053;28;20576;-79
2022/11/18 05:24:29;;;;;;;0.50;0.50;;;21.50;65.80;;;;;;4985213;28;20449;-77
2022/11/18 05:26:57;;;;;;;1.10;0.93;;;21.50;65.80;;;;;;4984514;28;20469;-75
2022/11/18 05:29:25;;;;;;;2.30;0.67;;;21.50;65.80;;;;;;4987689;28;20467;-80
2022/11/18 05:31:53;;;;;;;1.37;0.67;;;21.50;65.80;;;;;;4985104;28;20468;-80
2022/11/18 05:34:22;;;;;;;0.70;0.70;;;21.50;65.80;;;;;;4989681;28;20471;-80
2022/11/18 05:36:50;;;;;;;0.57;0.57;;;21.50;65.80;;;;;;4987181;28;20965;-81
2022/11/18 05:39:18;;;;;;;0.50;0.50;;;21.50;65.70;;;;;;4985892;28;20481;-80
2022/11/18 05:44:34;;;;;;;0.50;0.50;;;21.50;65.70;;;;;;4986531;28;20500;-80
2022/11/18 05:47:02;;;;;;;0.60;0.60;;;21.40;65.70;;;;;;4985165;28;20460;-79
2022/11/18 05:49:30;;;;;;;0.80;0.80;;;21.50;65.80;;;;;;4983474;28;20816;-79
2022/11/18 05:51:58;;;;;;;1.63;0.70;;;21.50;65.80;;;;;;4983212;28;20458;-79
2022/11/18 05:54:27;;;;;;;0.90;0.80;;;21.40;65.70;;;;;;4979829;28;20589;-81
2022/11/18 05:56:56;;;;;;;0.60;0.60;;;21.40;65.70;;;;;;4989074;28;20457;-79
2022/11/18 05:59:24;;;;;;;0.90;0.87;;;21.40;65.70;;;;;;4985260;28;20471;-79
2022/11/18 06:01:59;;;;;;;0.87;0.60;;;21.40;65.80;;;;;;4983011;28;20502;-80
2022/11/18 06:04:32;;;;;;;1.70;0.67;;;21.40;65.90;;;;;;4984384;28;20470;-80
2022/11/18 06:07:04;;;;;;;1.37;0.70;;;21.40;65.90;;;;;;4983769;28;20462;-77
2022/11/18 06:09:36;;;;;;;0.57;0.57;;;21.40;65.90;;;;;;4985204;28;20457;-78
2022/11/18 06:12:07;;;;;;;2.10;0.80;;;21.40;66.10;;;;;;4986975;28;20461;-78
2022/11/18 06:14:39;;;;;;;1.63;0.80;;;21.40;66.20;;;;;;4988364;28;20495;-80
2022/11/18 06:17:11;;;;;;;2.97;0.70;;;21.40;66.20;;;;;;4987724;28;20457;-77
2022/11/18 06:19:40;;;;;;;3.50;1.30;;;21.40;66.20;;;;;;4986377;28;20447;-77
2022/11/18 06:22:09;;;;;;;1.10;1.00;;;21.40;66.30;;;;;;4981963;28;21015;-78
2022/11/18 06:24:38;;;;;;;1.00;0.80;;;21.40;66.30;;;;;;5003474;28;20570;-78
2022/11/18 06:27:07;;;;;;;2.40;1.10;;;21.40;66.40;;;;;;5008076;28;20511;-80
2022/11/18 06:29:35;;;;;;;1.00;0.77;;;21.40;66.30;;;;;;5015125;28;20466;-76
2022/11/18 06:32:04;;;;;;;3.67;0.83;;;21.40;66.30;;;;;;5014131;28;20985;-77
2022/11/18 06:34:32;;;;;;;2.03;1.00;;;21.40;66.30;;;;;;5011541;28;20489;-77
2022/11/18 06:37:14;;;;;;;0.53;0.53;;;21.40;66.40;;;;;;5006594;28;20455;-76
2022/11/18 06:39:43;;;;;;;0.83;0.60;;;21.40;66.40;;;;;;5010361;28;20444;-81
2022/11/18 06:43:37;;;;;;;2.30;1.00;;;21.40;66.30;;;;;;5012225;28;20487;-76
2022/11/18 06:45:00;;;;;;;1.53;1.30;;;21.40;66.30;;;;;;5007151;28;20515;-75
2022/11/18 06:47:29;;;;;;;1.90;0.77;;;21.40;66.30;;;;;;5009146;28;20493;-80
2022/11/18 06:49:57;;;;;;;1.63;0.70;;;21.40;66.30;;;;;;5005239;28;20538;-80
2022/11/18 06:52:25;;;;;;;2.37;1.23;;;21.40;66.20;;;;;;5007373;28;20472;-76
2022/11/18 06:54:54;;;;;;;3.57;1.57;;;21.40;66.50;;;;;;5008105;28;20963;-77
2022/11/18 06:57:23;;;;;;;7.00;1.70;;;21.40;68.30;;;;;;5022538;28;20494;-78
2022/11/18 06:59:51;;;;;;;8.60;2.23;;;21.40;68.90;;;;;;5027946;28;20469;-77
2022/11/18 07:02:26;;;;;;;3.63;1.50;;;21.40;69.00;;;;;;5015252;28;20478;-77
2022/11/18 07:04:54;;;;;;;4.03;1.43;;;21.40;68.90;;;;;;5019079;28;20539;-77
2022/11/18 07:07:22;;;;;;;2.60;1.40;;;21.40;69.00;;;;;;5016491;28;20478;-79
2022/11/18 07:09:50;;;;;;;4.33;1.83;;;21.40;69.00;;;;;;5013287;28;21021;-75
2022/11/18 07:12:18;;;;;;;6.40;1.60;;;21.40;69.10;;;;;;5008986;28;20579;-77
2022/11/18 07:14:48;;;;;;;5.37;1.57;;;21.40;69.00;;;;;;5009683;28;20492;-77
2022/11/18 07:17:16;;;;;;;3.70;1.30;;;21.40;68.90;;;;;;5012411;28;20491;-78
2022/11/18 07:19:44;;;;;;;5.07;1.90;;;21.40;69.00;;;;;;5007284;28;21180;-78
2022/11/18 07:22:12;;;;;;;1.90;1.13;;;21.40;68.90;;;;;;5023966;28;20485;-78
2022/11/18 07:24:40;;;;;;;3.33;1.20;;;21.40;68.80;;;;;;5017774;28;20573;-77
2022/11/18 07:27:08;;;;;;;2.73;2.17;;;21.40;68.90;;;;;;5019916;28;20446;-78
2022/11/18 07:29:36;;;;;;;2.43;1.23;;;21.40;68.80;;;;;;5026310;28;20456;-79
2022/11/18 07:32:06;;;;;;;6.30;1.30;;;21.40;68.70;;;;;;5023725;28;20468;-78
2022/11/18 07:34:34;;;;;;;7.60;1.23;;;21.40;68.60;;;;;;5020108;28;20473;-77
2022/11/18 07:37:02;;;;;;;3.13;1.73;;;21.40;68.60;;;;;;5021653;28;20455;-78
2022/11/18 07:39:31;;;;;;;1.93;1.00;;;21.40;68.60;;;;;;5020260;28;20991;-76
2022/11/18 07:41:59;;;;;;;1.83;1.03;;;21.40;68.50;;;;;;5022206;28;20486;-75
2022/11/18 07:44:27;;;;;;;1.77;0.93;;;21.40;68.40;;;;;;5011518;28;20916;-74
2022/11/18 07:46:55;;;;;;;1.60;1.23;;;21.40;68.40;;;;;;5018753;28;21032;-78
2022/11/18 07:49:24;;;;;;;2.10;1.20;;;21.40;68.30;;;;;;5011153;28;20973;-74
2022/11/18 07:51:53;;;;;;;1.33;1.07;;;21.40;68.20;;;;;;5015064;28;20445;-77
2022/11/18 07:54:21;;;;;;;1.90;1.00;;;21.40;68.20;;;;;;5005955;28;20500;-77
2022/11/18 07:56:49;;;;;;;2.47;1.10;;;21.40;68.10;;;;;;5006025;28;20580;-78
2022/11/18 07:59:17;;;;;;;2.07;1.40;;;21.40;68.10;;;;;;5022911;28;20550;-77
2022/11/18 08:01:46;;;;;;;1.67;1.10;;;21.40;68.10;;;;;;5019925;28;20471;-78
2022/11/18 08:04:15;;;;;;;4.00;1.10;;;21.40;68.00;;;;;;5010029;28;20468;-77
2022/11/18 08:06:44;;;;;;;4.03;1.07;;;21.40;68.00;;;;;;5002648;28;20470;-79
2022/11/18 08:09:13;;;;;;;1.93;1.83;;;21.40;68.00;;;;;;5009074;28;20490;-79
2022/11/18 08:11:41;;;;;;;1.10;0.90;;;21.40;68.10;;;;;;5017982;28;20939;-77
2022/11/18 08:14:09;;;;;;;1.17;1.10;;;21.50;68.10;;;;;;5013127;28;20490;-82
2022/11/18 08:16:37;;;;;;;4.83;1.10;;;21.50;68.10;;;;;;5011049;28;20558;-80
2022/11/18 08:19:05;;;;;;;4.60;1.27;;;21.50;68.00;;;;;;5022580;28;20529;-83
2022/11/18 08:21:33;;;;;;;4.70;1.00;;;21.50;68.00;;;;;;5023425;28;20454;-79
2022/11/18 08:24:03;;;;;;;2.53;1.43;;;21.60;68.00;;;;;;5002755;28;20488;-80
2022/11/18 08:26:31;;;;;;;2.77;1.97;;;21.60;67.80;;;;;;5009137;28;20492;-74
2022/11/18 08:28:59;;;;;;;3.33;1.30;;;21.60;67.80;;;;;;5007913;28;20452;-75
2022/11/18 08:31:30;;;;;;;1.40;1.10;;;21.60;67.90;;;;;;5011102;28;20983;-74
2022/11/18 08:34:00;;;;;;;2.07;1.10;;;21.60;67.80;;;;;;5005752;28;20464;-82
2022/11/18 08:36:30;;;;;;;1.10;1.00;;;21.70;67.70;;;;;;5007682;28;20546;-87
2022/11/18 08:39:00;;;;;;;2.80;0.90;;;21.70;67.50;;;;;;5010556;28;20468;-76
2022/11/18 08:41:32;;;;;;;4.40;1.60;;;21.70;67.40;;;;;;5011859;28;20560;-76
2022/11/18 08:44:01;;;;;;;5.43;1.30;;;21.70;67.50;;;;;;5007251;28;20560;-75
2022/11/18 08:46:29;;;;;;;2.50;1.40;;;21.70;67.50;;;;;;5009701;28;20968;-74
2022/11/18 08:48:58;;;;;;;1.90;1.03;;;21.70;67.50;;;;;;5010531;28;20582;-73
2022/11/18 08:51:26;;;;;;;1.70;1.17;;;21.70;67.50;;;;;;5012696;28;20464;-78
2022/11/18 08:53:54;;;;;;;2.13;1.00;;;21.80;67.50;;;;;;5009588;28;20487;-78
2022/11/18 08:56:25;;;;;;;2.23;1.23;;;21.80;67.40;;;;;;5003557;28;20466;-85
2022/11/18 08:58:55;;;;;;;1.73;0.80;;;21.80;67.40;;;;;;5004081;28;20459;-78
2022/11/18 09:01:24;;;;;;;2.73;0.80;;;21.80;67.40;;;;;;5004753;28;20510;-75
2022/11/18 09:03:52;;;;;;;1.17;1.03;;;21.90;67.30;;;;;;5005506;28;20579;-78
2022/11/18 09:06:23;;;;;;;3.27;1.20;;;21.80;67.30;;;;;;5005949;28;20540;-76
2022/11/18 09:08:52;;;;;;;1.50;1.10;;;21.80;67.30;;;;;;5006926;28;20451;-76
2022/11/18 09:11:22;;;;;;;3.47;2.30;;;21.90;67.40;;;;;;4997652;28;20982;-74
2022/11/18 09:13:55;;;;;;;1.00;0.67;;;21.90;67.30;;;;;;4999126;28;20924;-75
2022/11/18 09:16:43;;;;;;;1.10;1.00;;;21.90;67.40;;;;;;4997164;28;20462;-75
2022/11/18 09:19:11;;;;;;;3.30;0.80;;;21.90;67.40;;;;;;4999126;28;21047;-77
2022/11/18 09:21:59;;;;;;;1.73;1.20;;;21.90;67.40;;;;;;5003690;28;20457;-77
2022/11/18 09:24:27;;;;;;;2.57;1.23;;;21.90;67.40;;;;;;5011560;28;20472;-82
2022/11/18 09:26:55;;;;;;;2.27;1.20;;;21.90;67.40;;;;;;5018643;28;20487;-77
2022/11/18 09:29:25;;;;;;;2.60;1.23;;;21.90;67.30;;;;;;5017258;28;20545;-77
2022/11/18 09:31:54;;;;;;;2.20;1.13;;;22.00;67.30;;;;;;5016550;28;20838;-77
2022/11/18 09:34:22;;;;;;;2.90;1.07;;;22.00;67.40;;;;;;5007579;28;20464;-77
2022/11/18 09:36:54;;;;;;;3.57;1.37;;;22.00;67.30;;;;;;5023352;28;20569;-76
2022/11/18 09:39:23;;;;;;;1.13;0.90;;;22.00;67.40;;;;;;5023037;28;20456;-74
2022/11/18 09:42:01;;;;;;;3.03;1.20;;;22.00;67.30;;;;;;4995510;28;20563;-76
2022/11/18 09:44:51;;;;;;;2.83;0.93;;;22.00;67.30;;;;;;5004601;28;20523;-76
2022/11/18 09:47:27;;;;;;;1.53;1.07;;;22.00;67.30;;;;;;4995721;28;20591;-74
2022/11/18 09:49:57;;;;;;;1.00;0.83;;;22.00;67.30;;;;;;5012182;28;20449;-73
2022/11/18 09:52:29;;;;;;;4.90;2.07;;;22.00;67.10;;;;;;5015363;28;20509;-90
2022/11/18 09:55:08;;;;;;;3.00;1.10;;;22.00;66.80;;;;;;5015022;28;20484;-80
2022/11/18 09:57:39;;;;;;;3.90;1.17;;;22.00;67.20;;;;;;5022330;28;20466;-83
2022/11/18 10:00:15;;;;;;;4.43;1.03;;;22.00;67.30;;;;;;5019679;28;20466;-80
2022/11/18 10:02:52;;;;;;;3.70;1.40;;;22.00;67.30;;;;;;5009113;28;20446;-82
2022/11/18 10:05:23;;;;;;;4.83;2.07;;;22.00;67.10;;;;;;5008515;28;20894;-81
2022/11/18 10:08:04;;;;;;;1.50;1.03;;;22.00;67.10;;;;;;5011832;28;20516;-82
2022/11/18 10:10:43;;;;;;;2.10;1.10;;;22.00;67.20;;;;;;5013786;28;20879;-87
2022/11/18 10:13:22;;;;;;;1.93;1.00;;;22.10;66.80;;;;;;5015939;28;20770;-86
2022/11/18 10:16:00;;;;;;;2.80;1.30;;;22.00;66.80;;;;;;5013331;28;20487;-81
2022/11/18 10:18:36;;;;;;;4.33;1.53;;;22.00;66.90;;;;;;5009064;28;20450;-86
2022/11/18 10:21:32;;;;;;;2.70;1.40;;;22.10;66.90;;;;;;5011783;28;20453;-75
2022/11/18 10:24:03;;;;;;;2.30;1.03;;;22.10;66.70;;;;;;5013157;28;20571;-74
2022/11/18 10:26:34;;;;;;;5.43;1.50;;;22.10;66.70;;;;;;5014324;28;20882;-74
2022/11/18 10:29:03;;;;;;;2.50;1.40;;;22.10;66.70;;;;;;5024348;28;20455;-74
2022/11/18 10:31:32;;;;;;;1.57;1.00;;;22.10;66.50;;;;;;5015158;28;20444;-72
2022/11/18 10:34:02;;;;;;;3.37;1.50;;;22.10;66.40;;;;;;5021458;28;20491;-74
2022/11/18 10:36:33;;;;;;;5.40;1.33;;;22.10;66.50;;;;;;5011744;28;20464;-74
2022/11/18 10:39:09;;;;;;;1.13;1.07;;;22.10;66.40;;;;;;5009465;28;20484;-72
2022/11/18 10:41:41;;;;;;;2.30;1.30;;;22.10;66.20;;;;;;5020153;28;20550;-74
2022/11/18 10:44:29;;;;;;;3.07;1.30;;;22.10;66.40;;;;;;5010540;28;20462;-73
2022/11/18 10:47:29;;;;;;;1.80;1.07;;;22.10;66.30;;;;;;5008686;28;20564;-77
2022/11/18 10:49:59;;;;;;;3.83;1.57;;;22.10;66.00;;;;;;5010414;28;20498;-76
2022/11/18 10:52:28;;;;;;;1.20;1.00;;;22.10;66.00;;;;;;5014684;28;20447;-76
2022/11/18 10:55:22;;;;;;;2.83;1.30;;;22.10;66.00;;;;;;5012287;28;20990;-75
2022/11/18 10:57:58;;;;;;;1.60;0.87;;;22.10;66.00;;;;;;4998958;28;21066;-76
2022/11/18 11:00:38;;;;;;;1.43;0.80;;;22.10;66.00;;;;;;5008096;28;20911;-75
2022/11/18 11:03:33;;;;;;;2.47;0.93;;;22.10;66.00;;;;;;5017693;28;20465;-73
2022/11/18 11:06:31;;;;;;;0.97;0.87;;;22.00;65.80;;;;;;5024289;28;20558;-75
2022/11/18 11:09:02;;;;;;;2.40;1.10;;;22.00;65.80;;;;;;5028963;28;20450;-75
2022/11/18 11:11:32;;;;;;;1.63;1.20;;;22.00;65.90;;;;;;5022186;28;20459;-77
2022/11/18 11:14:16;;;;;;;1.67;1.57;;;22.00;65.70;;;;;;5019714;28;20456;-75
2022/11/18 11:16:52;;;;;;;1.23;0.73;;;21.90;65.50;;;;;;5018317;28;20453;-74
2022/11/18 11:19:25;;;;;;;2.30;0.80;;;21.90;65.60;;;;;;5021920;28;20965;-75
2022/11/18 11:21:53;;;;;;;1.63;1.10;;;21.90;65.60;;;;;;5014595;28;20491;-74
2022/11/18 11:24:26;;;;;;;1.03;0.67;;;21.90;65.50;;;;;;5014265;28;20476;-76
2022/11/18 11:27:06;;;;;;;0.87;0.73;;;21.90;65.40;;;;;;5021850;28;20554;-76
2022/11/18 11:30:17;;;;;;;1.77;0.77;;;21.90;65.40;;;;;;5010405;28;20874;-77
2022/11/18 11:33:17;;;;;;;2.57;1.00;;;21.80;65.40;;;;;;5003469;28;20558;-76
2022/11/18 11:35:55;;;;;;;2.60;0.70;;;21.80;65.30;;;;;;5016154;28;20466;-76
2022/11/18 11:38:37;;;;;;;0.80;0.70;;;21.80;65.30;;;;;;5013166;28;20455;-72
2022/11/18 11:41:13;;;;;;;1.73;0.50;;;21.80;65.30;;;;;;5012924;28;20956;-76
2022/11/18 11:43:54;;;;;;;1.27;0.70;;;21.80;65.30;;;;;;5013555;28;20492;-76
2022/11/18 11:46:32;;;;;;;2.33;0.70;;;21.80;65.30;;;;;;5021409;28;20466;-76
2022/11/18 11:49:14;;;;;;;0.77;0.57;;;21.80;65.30;;;;;;5017386;28;21078;-74
2022/11/18 11:51:50;;;;;;;0.73;0.73;;;21.70;65.20;;;;;;5022675;28;20935;-76
2022/11/18 11:54:40;;;;;;;0.53;0.53;;;21.80;65.20;;;;;;5020972;28;20487;-76
2022/11/18 11:57:17;;;;;;;0.50;0.50;;;21.80;65.10;;;;;;5017283;28;20496;-74
2022/11/18 11:59:54;;;;;;;2.20;0.70;;;21.80;65.10;;;;;;5017500;28;20466;-75
2022/11/18 12:02:49;;;;;;;0.60;0.50;;;21.80;64.90;;;;;;5017178;28;20805;-76
2022/11/18 12:05:24;;;;;;;0.80;0.70;;;21.90;64.80;;;;;;5012382;28;21039;-77
2022/11/18 12:07:57;;;;;;;0.77;0.50;;;21.90;64.80;;;;;;5010638;28;20464;-76
2022/11/18 12:10:31;;;;;;;0.80;0.73;;;21.90;64.70;;;;;;5008721;28;20468;-75
2022/11/18 12:13:19;;;;;;;1.03;0.90;;;21.90;64.60;;;;;;5017034;28;21019;-76
2022/11/18 12:15:58;;;;;;;0.70;0.70;;;21.90;64.60;;;;;;5016141;28;21067;-74
2022/11/18 12:18:35;;;;;;;1.43;0.93;;;22.00;64.50;;;;;;5021372;28;20442;-75
2022/11/18 12:21:03;;;;;;;0.70;0.63;;;22.00;64.50;;;;;;5021897;28;20503;-76
2022/11/18 12:23:33;;;;;;;1.20;0.87;;;22.00;64.40;;;;;;5020406;28;20535;-74
2022/11/18 12:26:04;;;;;;;0.50;0.40;;;22.00;64.40;;;;;;5024155;28;20870;-76
2022/11/18 12:28:36;;;;;;;4.03;0.60;;;22.00;64.50;;;;;;5028748;28;20452;-77
2022/11/18 12:31:27;;;;;;;1.60;0.90;;;22.00;64.40;;;;;;5011533;28;20511;-77
2022/11/18 12:33:57;;;;;;;4.03;1.10;;;21.90;64.40;;;;;;4993503;28;20453;-78
2022/11/18 12:36:26;;;;;;;1.53;0.90;;;21.90;64.40;;;;;;5004703;28;20542;-77
2022/11/18 12:38:57;;;;;;;2.60;0.90;;;21.90;64.60;;;;;;5018380;28;20442;-72
2022/11/18 12:44:41;;;;;;;0.90;0.90;;;21.90;64.70;;;;;;5007586;28;20496;-74
2022/11/18 12:47:10;;;;;;;1.83;1.10;;;21.90;64.70;;;;;;5024998;28;20485;-75
2022/11/18 12:50:12;;;;;;;1.23;1.13;;;21.90;64.90;;;;;;5019989;28;20843;-78
2022/11/18 12:52:52;;;;;;;3.50;1.33;;;22.00;64.90;;;;;;5005311;28;20455;-78
2022/11/18 12:55:39;;;;;;;1.17;1.10;;;22.00;65.00;;;;;;5010117;28;20477;-77
2022/11/18 12:58:23;;;;;;;2.63;1.23;;;22.10;65.30;;;;;;5012397;28;20453;-76
2022/11/18 13:01:05;;;;;;;1.07;1.00;;;22.10;65.30;;;;;;5007833;28;20870;-77
2022/11/18 13:03:33;;;;;;;1.20;0.90;;;22.20;65.20;;;;;;5008031;28;21301;-76
2022/11/18 13:06:05;;;;;;;1.53;1.30;;;22.20;65.20;;;;;;5008127;28;20481;-76
2022/11/18 13:08:34;;;;;;;3.60;1.60;;;22.20;65.20;;;;;;5010520;28;20794;-75
2022/11/18 13:19:34;;;;;;;1.40;1.10;;;22.10;65.50;;;;;;5005695;28;20510;-76
2022/11/18 13:24:49;;;;;;;1.83;1.50;;;22.10;65.50;;;;;;5005131;28;20476;-76
2022/11/18 13:27:35;;;;;;;2.83;0.87;;;22.10;65.50;;;;;;5010203;28;20463;-78
2022/11/18 13:30:07;;;;;;;1.87;1.60;;;22.10;65.70;;;;;;5002237;28;20492;-77
2022/11/18 13:32:35;;;;;;;1.90;1.20;;;22.10;65.60;;;;;;5006122;28;20459;-76
2022/11/18 13:35:13;;;;;;;2.23;1.03;;;22.10;65.60;;;;;;4995535;28;20464;-77
2022/11/18 13:37:51;;;;;;;1.30;1.20;;;22.10;65.60;;;;;;5001045;28;20528;-77
2022/11/18 13:40:21;;;;;;;1.60;1.20;;;22.10;65.70;;;;;;5006807;28;20474;-77
2022/11/18 13:42:51;;;;;;;2.60;1.17;;;22.10;65.70;;;;;;5002674;28;20812;-77